Capitol Logistics 7472

Operating for MZN



KABE
Lehigh Valley International Airport
Allentown, Pennsylvania
KCLT
Charlotte/Douglas International Airport
Charlotte, North Carolina

Activity Log

Date Flight Route Aircraft Duration
No Flights Yet

Route Details

Aircraft Information
Primary: Boeing 737-800BCF
Backup: Boeing 757-200SF
Route Data
Distance: 418nm
Duration: 1h 41m
Recm'd Route: ETX LRP EMI J48 MOL LYH CHSLY4
Origin Wx: KABE 141951Z 24006KT 10SM FEW065 OVC085 16/10 A2994 RMK AO2 RAE1855 SLP140 P0000 T01610100 $
Dest. Wx: KCLT 141952Z 22011G16KT 10SM FEW065 SCT110 BKN150 BKN250 27/11 A2993 RMK AO2 SLP129 T02720111
Notes: